sensor_id;sensor_type;location;lat;lon;timestamp;temperature;humidity
74742;SHT30;76291;48.288;16.314;2024-02-16T00:00:01;7.3;80.1
74742;SHT30;76291;48.288;16.314;2024-02-16T00:01:01;7.3;79.9
74742;SHT30;76291;48.288;16.314;2024-02-16T00:02:01;7.3;80.0
74742;SHT30;76291;48.288;16.314;2024-02-16T00:03:00;7.3;79.9
74742;SHT30;76291;48.288;16.314;2024-02-16T00:04:00;7.3;79.9
74742;SHT30;76291;48.288;16.314;2024-02-16T00:05:00;7.4;79.7
74742;SHT30;76291;48.288;16.314;2024-02-16T00:06:01;7.3;79.8
74742;SHT30;76291;48.288;16.314;2024-02-16T00:07:00;7.3;79.6
74742;SHT30;76291;48.288;16.314;2024-02-16T00:08:00;7.3;79.7
74742;SHT30;76291;48.288;16.314;2024-02-16T00:09:00;7.3;79.7
74742;SHT30;76291;48.288;16.314;2024-02-16T00:10:01;7.3;79.9
74742;SHT30;76291;48.288;16.314;2024-02-16T00:11:00;7.3;79.8
74742;SHT30;76291;48.288;16.314;2024-02-16T00:12:01;7.3;79.6
74742;SHT30;76291;48.288;16.314;2024-02-16T00:13:00;7.3;79.6
74742;SHT30;76291;48.288;16.314;2024-02-16T00:14:01;7.3;79.6
74742;SHT30;76291;48.288;16.314;2024-02-16T00:15:01;7.3;79.6
74742;SHT30;76291;48.288;16.314;2024-02-16T00:16:01;7.3;79.6
74742;SHT30;76291;48.288;16.314;2024-02-16T00:17:01;7.3;79.4
74742;SHT30;76291;48.288;16.314;2024-02-16T00:18:01;7.3;79.5
74742;SHT30;76291;48.288;16.314;2024-02-16T00:19:01;7.3;79.5
74742;SHT30;76291;48.288;16.314;2024-02-16T00:20:01;7.3;79.3
74742;SHT30;76291;48.288;16.314;2024-02-16T00:21:01;7.3;79.3
74742;SHT30;76291;48.288;16.314;2024-02-16T00:22:01;7.4;79.0
74742;SHT30;76291;48.288;16.314;2024-02-16T00:23:01;7.4;79.2
74742;SHT30;76291;48.288;16.314;2024-02-16T00:24:01;7.3;79.5
74742;SHT30;76291;48.288;16.314;2024-02-16T00:25:01;7.3;79.4
74742;SHT30;76291;48.288;16.314;2024-02-16T00:26:01;7.3;79.5
74742;SHT30;76291;48.288;16.314;2024-02-16T00:27:00;7.2;79.6
74742;SHT30;76291;48.288;16.314;2024-02-16T00:28:00;7.3;79.6
74742;SHT30;76291;48.288;16.314;2024-02-16T00:29:00;7.3;79.4
74742;SHT30;76291;48.288;16.314;2024-02-16T00:30:00;7.3;79.6
74742;SHT30;76291;48.288;16.314;2024-02-16T00:31:00;7.3;79.4
74742;SHT30;76291;48.288;16.314;2024-02-16T00:32:00;7.3;79.2
74742;SHT30;76291;48.288;16.314;2024-02-16T00:33:00;7.3;79.4
74742;SHT30;76291;48.288;16.314;2024-02-16T00:34:00;7.3;79.3
74742;SHT30;76291;48.288;16.314;2024-02-16T00:35:00;7.3;79.5
74742;SHT30;76291;48.288;16.314;2024-02-16T00:36:00;7.2;79.4
74742;SHT30;76291;48.288;16.314;2024-02-16T00:37:00;7.3;79.1
74742;SHT30;76291;48.288;16.314;2024-02-16T00:38:00;7.3;79.3
74742;SHT30;76291;48.288;16.314;2024-02-16T00:39:00;7.3;79.3
74742;SHT30;76291;48.288;16.314;2024-02-16T00:40:00;7.3;79.2
74742;SHT30;76291;48.288;16.314;2024-02-16T00:41:00;7.3;79.2
74742;SHT30;76291;48.288;16.314;2024-02-16T00:42:00;7.3;79.1
74742;SHT30;76291;48.288;16.314;2024-02-16T00:43:00;7.3;79.1
74742;SHT30;76291;48.288;16.314;2024-02-16T00:44:00;7.3;79.0
74742;SHT30;76291;48.288;16.314;2024-02-16T00:45:00;7.2;79.2
74742;SHT30;76291;48.288;16.314;2024-02-16T00:46:00;7.2;79.4
74742;SHT30;76291;48.288;16.314;2024-02-16T00:47:00;7.2;79.5
74742;SHT30;76291;48.288;16.314;2024-02-16T00:48:00;7.2;79.5
74742;SHT30;76291;48.288;16.314;2024-02-16T00:49:00;7.2;79.3
74742;SHT30;76291;48.288;16.314;2024-02-16T00:50:00;7.1;79.4
74742;SHT30;76291;48.288;16.314;2024-02-16T00:51:00;7.2;79.4
74742;SHT30;76291;48.288;16.314;2024-02-16T00:52:00;7.2;79.2
74742;SHT30;76291;48.288;16.314;2024-02-16T00:53:00;7.2;79.2
74742;SHT30;76291;48.288;16.314;2024-02-16T00:54:00;7.2;79.2
74742;SHT30;76291;48.288;16.314;2024-02-16T00:55:00;7.2;79.2
74742;SHT30;76291;48.288;16.314;2024-02-16T00:56:00;7.3;79.0
74742;SHT30;76291;48.288;16.314;2024-02-16T00:57:02;7.2;79.2
74742;SHT30;76291;48.288;16.314;2024-02-16T00:58:00;7.2;79.3
74742;SHT30;76291;48.288;16.314;2024-02-16T00:59:00;7.2;79.4
74742;SHT30;76291;48.288;16.314;2024-02-16T01:00:00;7.1;79.3
74742;SHT30;76291;48.288;16.314;2024-02-16T01:01:00;7.1;79.4
74742;SHT30;76291;48.288;16.314;2024-02-16T01:02:00;7.1;79.4
74742;SHT30;76291;48.288;16.314;2024-02-16T01:03:00;7.2;79.1
74742;SHT30;76291;48.288;16.314;2024-02-16T01:04:00;7.3;78.9
74742;SHT30;76291;48.288;16.314;2024-02-16T01:05:00;7.2;79.0
74742;SHT30;76291;48.288;16.314;2024-02-16T01:06:00;7.1;79.5
74742;SHT30;76291;48.288;16.314;2024-02-16T01:07:00;7.1;79.4
74742;SHT30;76291;48.288;16.314;2024-02-16T01:08:00;7.0;79.7
74742;SHT30;76291;48.288;16.314;2024-02-16T01:09:00;7.0;79.7
74742;SHT30;76291;48.288;16.314;2024-02-16T01:10:00;6.9;79.8
74742;SHT30;76291;48.288;16.314;2024-02-16T01:11:00;6.9;79.8
74742;SHT30;76291;48.288;16.314;2024-02-16T01:12:00;7.0;79.9
74742;SHT30;76291;48.288;16.314;2024-02-16T01:13:00;6.9;80.0
74742;SHT30;76291;48.288;16.314;2024-02-16T01:14:00;6.9;79.9
74742;SHT30;76291;48.288;16.314;2024-02-16T01:15:00;7.0;79.9
74742;SHT30;76291;48.288;16.314;2024-02-16T01:16:00;7.0;79.7
74742;SHT30;76291;48.288;16.314;2024-02-16T01:17:00;6.9;79.7
74742;SHT30;76291;48.288;16.314;2024-02-16T01:18:03;7.0;79.5
74742;SHT30;76291;48.288;16.314;2024-02-16T01:19:00;7.1;79.3
74742;SHT30;76291;48.288;16.314;2024-02-16T01:20:00;7.1;79.3
74742;SHT30;76291;48.288;16.314;2024-02-16T01:21:00;7.1;79.4
74742;SHT30;76291;48.288;16.314;2024-02-16T01:22:00;7.0;79.5
74742;SHT30;76291;48.288;16.314;2024-02-16T01:23:00;7.0;79.8
74742;SHT30;76291;48.288;16.314;2024-02-16T01:24:00;6.9;80.0
74742;SHT30;76291;48.288;16.314;2024-02-16T01:25:00;6.9;80.0
74742;SHT30;76291;48.288;16.314;2024-02-16T01:26:00;6.9;80.0
74742;SHT30;76291;48.288;16.314;2024-02-16T01:27:00;6.8;80.1
74742;SHT30;76291;48.288;16.314;2024-02-16T01:28:00;6.9;80.0
74742;SHT30;76291;48.288;16.314;2024-02-16T01:29:00;6.8;80.1
74742;SHT30;76291;48.288;16.314;2024-02-16T01:30:00;6.9;79.9
74742;SHT30;76291;48.288;16.314;2024-02-16T01:31:00;6.9;80.0
74742;SHT30;76291;48.288;16.314;2024-02-16T01:33:00;6.9;79.8
74742;SHT30;76291;48.288;16.314;2024-02-16T01:34:00;7.0;79.5
74742;SHT30;76291;48.288;16.314;2024-02-16T01:35:00;7.0;79.4
74742;SHT30;76291;48.288;16.314;2024-02-16T01:36:00;7.0;79.5
74742;SHT30;76291;48.288;16.314;2024-02-16T01:37:00;6.9;79.6
74742;SHT30;76291;48.288;16.314;2024-02-16T01:38:00;6.9;79.7
74742;SHT30;76291;48.288;16.314;2024-02-16T01:39:00;6.9;79.5
74742;SHT30;76291;48.288;16.314;2024-02-16T01:40:00;6.9;79.8
74742;SHT30;76291;48.288;16.314;2024-02-16T01:41:00;6.8;79.8
74742;SHT30;76291;48.288;16.314;2024-02-16T01:42:00;6.9;79.7
74742;SHT30;76291;48.288;16.314;2024-02-16T01:43:00;6.8;79.9
74742;SHT30;76291;48.288;16.314;2024-02-16T01:44:00;6.9;79.7
74742;SHT30;76291;48.288;16.314;2024-02-16T01:45:00;6.9;79.8
74742;SHT30;76291;48.288;16.314;2024-02-16T01:46:00;6.8;79.8
74742;SHT30;76291;48.288;16.314;2024-02-16T01:47:00;6.8;79.8
74742;SHT30;76291;48.288;16.314;2024-02-16T01:48:00;6.8;79.9
74742;SHT30;76291;48.288;16.314;2024-02-16T01:49:00;6.7;80.0
74742;SHT30;76291;48.288;16.314;2024-02-16T01:50:00;6.7;80.1
74742;SHT30;76291;48.288;16.314;2024-02-16T01:51:00;6.8;80.1
74742;SHT30;76291;48.288;16.314;2024-02-16T01:52:00;6.8;80.0
74742;SHT30;76291;48.288;16.314;2024-02-16T01:53:00;6.8;80.1
74742;SHT30;76291;48.288;16.314;2024-02-16T01:54:00;6.7;80.1
74742;SHT30;76291;48.288;16.314;2024-02-16T01:55:00;6.7;80.3
74742;SHT30;76291;48.288;16.314;2024-02-16T01:56:00;6.8;80.0
74742;SHT30;76291;48.288;16.314;2024-02-16T01:57:00;6.7;80.1
74742;SHT30;76291;48.288;16.314;2024-02-16T01:58:00;6.7;80.1
74742;SHT30;76291;48.288;16.314;2024-02-16T01:59:02;6.6;80.3
74742;SHT30;76291;48.288;16.314;2024-02-16T02:00:00;6.7;80.2
74742;SHT30;76291;48.288;16.314;2024-02-16T02:01:00;6.7;80.0
74742;SHT30;76291;48.288;16.314;2024-02-16T02:02:00;6.6;80.3
74742;SHT30;76291;48.288;16.314;2024-02-16T02:03:00;6.6;80.2
74742;SHT30;76291;48.288;16.314;2024-02-16T02:04:00;6.6;80.1
74742;SHT30;76291;48.288;16.314;2024-02-16T02:05:00;6.6;80.0
74742;SHT30;76291;48.288;16.314;2024-02-16T02:06:00;6.6;80.1
74742;SHT30;76291;48.288;16.314;2024-02-16T02:07:00;6.6;79.9
74742;SHT30;76291;48.288;16.314;2024-02-16T02:08:08;6.6;80.0
74742;SHT30;76291;48.288;16.314;2024-02-16T02:09:00;6.7;79.8
74742;SHT30;76291;48.288;16.314;2024-02-16T02:10:00;6.7;79.8
74742;SHT30;76291;48.288;16.314;2024-02-16T02:11:00;6.7;79.7
74742;SHT30;76291;48.288;16.314;2024-02-16T02:12:00;6.7;79.6
74742;SHT30;76291;48.288;16.314;2024-02-16T02:13:00;6.7;79.8
74742;SHT30;76291;48.288;16.314;2024-02-16T02:14:00;6.7;79.8
74742;SHT30;76291;48.288;16.314;2024-02-16T02:15:00;6.6;79.8
74742;SHT30;76291;48.288;16.314;2024-02-16T02:16:00;6.6;79.8
74742;SHT30;76291;48.288;16.314;2024-02-16T02:17:00;6.7;79.7
74742;SHT30;76291;48.288;16.314;2024-02-16T02:18:00;6.8;79.4
74742;SHT30;76291;48.288;16.314;2024-02-16T02:19:00;6.7;79.5
74742;SHT30;76291;48.288;16.314;2024-02-16T02:20:00;6.7;79.5
74742;SHT30;76291;48.288;16.314;2024-02-16T02:21:00;6.7;79.2
74742;SHT30;76291;48.288;16.314;2024-02-16T02:22:00;6.7;79.2
74742;SHT30;76291;48.288;16.314;2024-02-16T02:23:00;6.7;79.5
74742;SHT30;76291;48.288;16.314;2024-02-16T02:24:00;6.6;79.7
74742;SHT30;76291;48.288;16.314;2024-02-16T02:25:00;6.6;79.6
74742;SHT30;76291;48.288;16.314;2024-02-16T02:26:00;6.6;79.7
74742;SHT30;76291;48.288;16.314;2024-02-16T02:27:00;6.6;79.6
74742;SHT30;76291;48.288;16.314;2024-02-16T02:28:00;6.6;79.7
74742;SHT30;76291;48.288;16.314;2024-02-16T02:29:00;6.5;79.8
74742;SHT30;76291;48.288;16.314;2024-02-16T02:30:00;6.5;79.8
74742;SHT30;76291;48.288;16.314;2024-02-16T02:31:00;6.5;79.8
74742;SHT30;76291;48.288;16.314;2024-02-16T02:32:00;6.6;79.6
74742;SHT30;76291;48.288;16.314;2024-02-16T02:33:00;6.6;79.6
74742;SHT30;76291;48.288;16.314;2024-02-16T02:34:00;6.5;79.5
74742;SHT30;76291;48.288;16.314;2024-02-16T02:35:01;6.5;79.6
74742;SHT30;76291;48.288;16.314;2024-02-16T02:36:00;6.5;79.5
74742;SHT30;76291;48.288;16.314;2024-02-16T02:37:00;6.6;79.4
74742;SHT30;76291;48.288;16.314;2024-02-16T02:38:00;6.5;79.5
74742;SHT30;76291;48.288;16.314;2024-02-16T02:39:00;6.5;79.7
74742;SHT30;76291;48.288;16.314;2024-02-16T02:40:00;6.5;79.6
74742;SHT30;76291;48.288;16.314;2024-02-16T02:41:00;6.6;79.2
74742;SHT30;76291;48.288;16.314;2024-02-16T02:42:00;6.5;79.2
74742;SHT30;76291;48.288;16.314;2024-02-16T02:43:00;6.6;79.2
74742;SHT30;76291;48.288;16.314;2024-02-16T02:44:00;6.6;79.0
74742;SHT30;76291;48.288;16.314;2024-02-16T02:45:00;6.6;79.0
74742;SHT30;76291;48.288;16.314;2024-02-16T02:46:00;6.6;78.9
74742;SHT30;76291;48.288;16.314;2024-02-16T02:47:00;6.6;79.1
74742;SHT30;76291;48.288;16.314;2024-02-16T02:48:00;6.6;79.0
74742;SHT30;76291;48.288;16.314;2024-02-16T02:49:00;6.6;78.6
74742;SHT30;76291;48.288;16.314;2024-02-16T02:50:00;6.6;78.8
74742;SHT30;76291;48.288;16.314;2024-02-16T02:51:00;6.5;79.1
74742;SHT30;76291;48.288;16.314;2024-02-16T02:52:00;6.5;79.1
74742;SHT30;76291;48.288;16.314;2024-02-16T02:53:00;6.6;78.9
74742;SHT30;76291;48.288;16.314;2024-02-16T02:54:00;6.6;78.7
74742;SHT30;76291;48.288;16.314;2024-02-16T02:55:00;6.6;78.8
74742;SHT30;76291;48.288;16.314;2024-02-16T02:56:00;6.5;78.8
74742;SHT30;76291;48.288;16.314;2024-02-16T02:57:01;6.6;78.9
74742;SHT30;76291;48.288;16.314;2024-02-16T02:58:00;6.6;78.7
74742;SHT30;76291;48.288;16.314;2024-02-16T02:59:00;6.6;78.4
74742;SHT30;76291;48.288;16.314;2024-02-16T03:00:04;6.6;78.5
74742;SHT30;76291;48.288;16.314;2024-02-16T03:01:00;6.6;78.4
74742;SHT30;76291;48.288;16.314;2024-02-16T03:02:00;6.6;78.5
74742;SHT30;76291;48.288;16.314;2024-02-16T03:03:00;6.7;78.3
74742;SHT30;76291;48.288;16.314;2024-02-16T03:04:00;6.7;77.6
74742;SHT30;76291;48.288;16.314;2024-02-16T03:05:00;6.6;78.2
74742;SHT30;76291;48.288;16.314;2024-02-16T03:06:00;6.6;78.3
74742;SHT30;76291;48.288;16.314;2024-02-16T03:07:00;6.6;78.4
74742;SHT30;76291;48.288;16.314;2024-02-16T03:08:00;6.6;78.2
74742;SHT30;76291;48.288;16.314;2024-02-16T03:09:00;6.6;78.4
74742;SHT30;76291;48.288;16.314;2024-02-16T03:10:01;6.6;78.5
74742;SHT30;76291;48.288;16.314;2024-02-16T03:11:00;6.5;78.3
74742;SHT30;76291;48.288;16.314;2024-02-16T03:12:04;6.4;78.8
74742;SHT30;76291;48.288;16.314;2024-02-16T03:13:00;6.4;78.7
74742;SHT30;76291;48.288;16.314;2024-02-16T03:14:00;6.5;78.3
74742;SHT30;76291;48.288;16.314;2024-02-16T03:15:00;6.5;78.5
74742;SHT30;76291;48.288;16.314;2024-02-16T03:16:00;6.5;78.1
74742;SHT30;76291;48.288;16.314;2024-02-16T03:17:00;6.5;78.1
74742;SHT30;76291;48.288;16.314;2024-02-16T03:18:00;6.5;77.9
74742;SHT30;76291;48.288;16.314;2024-02-16T03:19:00;6.5;78.3
74742;SHT30;76291;48.288;16.314;2024-02-16T03:20:03;6.5;78.0
74742;SHT30;76291;48.288;16.314;2024-02-16T03:21:00;6.5;78.2
74742;SHT30;76291;48.288;16.314;2024-02-16T03:22:00;6.5;78.3
74742;SHT30;76291;48.288;16.314;2024-02-16T03:23:00;6.5;78.1
74742;SHT30;76291;48.288;16.314;2024-02-16T03:24:01;6.5;78.2
74742;SHT30;76291;48.288;16.314;2024-02-16T03:25:00;6.5;78.3
74742;SHT30;76291;48.288;16.314;2024-02-16T03:26:00;6.5;78.1
74742;SHT30;76291;48.288;16.314;2024-02-16T03:27:04;6.5;78.2
74742;SHT30;76291;48.288;16.314;2024-02-16T03:28:00;6.4;78.5
74742;SHT30;76291;48.288;16.314;2024-02-16T03:29:00;6.4;78.5
74742;SHT30;76291;48.288;16.314;2024-02-16T03:30:00;6.5;78.4
74742;SHT30;76291;48.288;16.314;2024-02-16T03:31:00;6.5;78.2
74742;SHT30;76291;48.288;16.314;2024-02-16T03:32:00;6.4;78.4
74742;SHT30;76291;48.288;16.314;2024-02-16T03:33:00;6.4;78.4
74742;SHT30;76291;48.288;16.314;2024-02-16T03:34:00;6.3;78.5
74742;SHT30;76291;48.288;16.314;2024-02-16T03:35:00;6.4;78.3
74742;SHT30;76291;48.288;16.314;2024-02-16T03:36:00;6.4;78.6
74742;SHT30;76291;48.288;16.314;2024-02-16T03:37:00;6.4;78.5
74742;SHT30;76291;48.288;16.314;2024-02-16T03:38:00;6.4;78.5
74742;SHT30;76291;48.288;16.314;2024-02-16T03:39:00;6.3;78.8
74742;SHT30;76291;48.288;16.314;2024-02-16T03:40:00;6.4;78.6
74742;SHT30;76291;48.288;16.314;2024-02-16T03:41:00;6.3;78.6
74742;SHT30;76291;48.288;16.314;2024-02-16T03:42:00;6.3;78.6
74742;SHT30;76291;48.288;16.314;2024-02-16T03:43:00;6.3;78.6
74742;SHT30;76291;48.288;16.314;2024-02-16T03:44:00;6.3;78.7
74742;SHT30;76291;48.288;16.314;2024-02-16T03:45:00;6.3;78.7
74742;SHT30;76291;48.288;16.314;2024-02-16T03:46:00;6.3;78.6
74742;SHT30;76291;48.288;16.314;2024-02-16T03:47:00;6.3;78.5
74742;SHT30;76291;48.288;16.314;2024-02-16T03:48:00;6.3;78.5
74742;SHT30;76291;48.288;16.314;2024-02-16T03:49:00;6.2;78.7
74742;SHT30;76291;48.288;16.314;2024-02-16T03:50:00;6.2;78.9
74742;SHT30;76291;48.288;16.314;2024-02-16T03:51:00;6.2;78.9
74742;SHT30;76291;48.288;16.314;2024-02-16T03:52:00;6.2;78.8
74742;SHT30;76291;48.288;16.314;2024-02-16T03:53:00;6.2;79.1
74742;SHT30;76291;48.288;16.314;2024-02-16T03:54:00;6.2;78.8
74742;SHT30;76291;48.288;16.314;2024-02-16T03:55:00;6.2;78.6
74742;SHT30;76291;48.288;16.314;2024-02-16T03:56:00;6.2;78.9
74742;SHT30;76291;48.288;16.314;2024-02-16T03:57:00;6.1;79.1
74742;SHT30;76291;48.288;16.314;2024-02-16T03:58:00;6.1;79.3
74742;SHT30;76291;48.288;16.314;2024-02-16T03:59:00;6.1;79.1
74742;SHT30;76291;48.288;16.314;2024-02-16T04:00:00;6.2;79.0
74742;SHT30;76291;48.288;16.314;2024-02-16T04:01:00;6.1;78.9
74742;SHT30;76291;48.288;16.314;2024-02-16T04:02:00;6.1;79.1
74742;SHT30;76291;48.288;16.314;2024-02-16T04:03:00;6.1;79.1
74742;SHT30;76291;48.288;16.314;2024-02-16T04:04:00;6.0;79.4
74742;SHT30;76291;48.288;16.314;2024-02-16T04:05:00;6.1;79.0
74742;SHT30;76291;48.288;16.314;2024-02-16T04:06:00;6.0;79.4
74742;SHT30;76291;48.288;16.314;2024-02-16T04:07:00;6.0;79.2
74742;SHT30;76291;48.288;16.314;2024-02-16T04:08:00;6.0;79.4
74742;SHT30;76291;48.288;16.314;2024-02-16T04:09:00;6.0;79.3
74742;SHT30;76291;48.288;16.314;2024-02-16T04:10:00;6.0;79.5
74742;SHT30;76291;48.288;16.314;2024-02-16T04:13:00;6.1;79.3
74742;SHT30;76291;48.288;16.314;2024-02-16T04:14:00;6.0;79.4
74742;SHT30;76291;48.288;16.314;2024-02-16T04:15:00;6.0;79.3
74742;SHT30;76291;48.288;16.314;2024-02-16T04:16:00;6.1;79.2
74742;SHT30;76291;48.288;16.314;2024-02-16T04:17:00;6.0;79.2
74742;SHT30;76291;48.288;16.314;2024-02-16T04:18:00;6.0;79.2
74742;SHT30;76291;48.288;16.314;2024-02-16T04:19:00;6.0;79.2
74742;SHT30;76291;48.288;16.314;2024-02-16T04:20:00;6.0;79.4
74742;SHT30;76291;48.288;16.314;2024-02-16T04:21:00;6.0;79.2
74742;SHT30;76291;48.288;16.314;2024-02-16T04:22:01;6.0;79.3
74742;SHT30;76291;48.288;16.314;2024-02-16T04:23:00;6.0;79.4
74742;SHT30;76291;48.288;16.314;2024-02-16T04:24:00;6.0;79.5
74742;SHT30;76291;48.288;16.314;2024-02-16T04:25:00;6.0;79.5
74742;SHT30;76291;48.288;16.314;2024-02-16T04:26:00;6.0;79.3
74742;SHT30;76291;48.288;16.314;2024-02-16T04:27:00;5.9;79.8
74742;SHT30;76291;48.288;16.314;2024-02-16T04:28:00;5.8;79.7
74742;SHT30;76291;48.288;16.314;2024-02-16T04:29:00;5.8;79.6
74742;SHT30;76291;48.288;16.314;2024-02-16T04:30:00;5.6;80.8
74742;SHT30;76291;48.288;16.314;2024-02-16T04:31:00;5.8;80.1
74742;SHT30;76291;48.288;16.314;2024-02-16T04:32:00;5.8;80.1
74742;SHT30;76291;48.288;16.314;2024-02-16T04:33:00;5.8;80.1
74742;SHT30;76291;48.288;16.314;2024-02-16T04:34:00;5.9;79.7
74742;SHT30;76291;48.288;16.314;2024-02-16T04:35:00;5.9;79.7
74742;SHT30;76291;48.288;16.314;2024-02-16T04:36:00;5.8;79.9
74742;SHT30;76291;48.288;16.314;2024-02-16T04:37:00;5.7;80.0
74742;SHT30;76291;48.288;16.314;2024-02-16T04:38:00;5.7;80.1
74742;SHT30;76291;48.288;16.314;2024-02-16T04:39:00;5.8;79.8
74742;SHT30;76291;48.288;16.314;2024-02-16T04:40:00;5.8;79.6
74742;SHT30;76291;48.288;16.314;2024-02-16T04:41:00;5.7;80.3
74742;SHT30;76291;48.288;16.314;2024-02-16T04:42:00;5.7;80.0
74742;SHT30;76291;48.288;16.314;2024-02-16T04:43:03;5.6;80.0
74742;SHT30;76291;48.288;16.314;2024-02-16T04:44:00;5.7;79.9
74742;SHT30;76291;48.288;16.314;2024-02-16T04:45:00;5.6;79.9
74742;SHT30;76291;48.288;16.314;2024-02-16T04:46:00;5.7;79.8
74742;SHT30;76291;48.288;16.314;2024-02-16T04:47:00;5.6;80.0
74742;SHT30;76291;48.288;16.314;2024-02-16T04:48:04;5.6;80.0
74742;SHT30;76291;48.288;16.314;2024-02-16T04:49:00;5.5;79.9
74742;SHT30;76291;48.288;16.314;2024-02-16T04:50:00;5.6;80.2
74742;SHT30;76291;48.288;16.314;2024-02-16T04:51:00;5.5;80.3
74742;SHT30;76291;48.288;16.314;2024-02-16T04:52:00;5.5;80.4
74742;SHT30;76291;48.288;16.314;2024-02-16T04:53:00;5.6;80.2
74742;SHT30;76291;48.288;16.314;2024-02-16T04:54:00;5.5;80.1
74742;SHT30;76291;48.288;16.314;2024-02-16T04:55:00;5.5;80.4
74742;SHT30;76291;48.288;16.314;2024-02-16T04:56:00;5.5;80.3
74742;SHT30;76291;48.288;16.314;2024-02-16T04:57:00;5.5;80.1
74742;SHT30;76291;48.288;16.314;2024-02-16T04:58:00;5.4;80.3
74742;SHT30;76291;48.288;16.314;2024-02-16T04:59:02;5.5;80.4
74742;SHT30;76291;48.288;16.314;2024-02-16T05:00:00;5.4;80.4
74742;SHT30;76291;48.288;16.314;2024-02-16T05:01:00;5.5;80.6
74742;SHT30;76291;48.288;16.314;2024-02-16T05:02:00;5.5;80.5
74742;SHT30;76291;48.288;16.314;2024-02-16T05:03:00;5.4;80.7
74742;SHT30;76291;48.288;16.314;2024-02-16T05:04:03;5.5;80.5
74742;SHT30;76291;48.288;16.314;2024-02-16T05:05:00;5.5;80.6
74742;SHT30;76291;48.288;16.314;2024-02-16T05:06:00;5.5;80.5
74742;SHT30;76291;48.288;16.314;2024-02-16T05:07:00;5.5;80.7
74742;SHT30;76291;48.288;16.314;2024-02-16T05:08:00;5.5;80.7
74742;SHT30;76291;48.288;16.314;2024-02-16T05:09:00;5.5;80.7
74742;SHT30;76291;48.288;16.314;2024-02-16T05:10:00;5.6;80.6
74742;SHT30;76291;48.288;16.314;2024-02-16T05:11:00;5.7;80.2
74742;SHT30;76291;48.288;16.314;2024-02-16T05:12:00;5.6;80.4
74742;SHT30;76291;48.288;16.314;2024-02-16T05:13:00;5.6;80.2
74742;SHT30;76291;48.288;16.314;2024-02-16T05:14:00;5.6;80.3
74742;SHT30;76291;48.288;16.314;2024-02-16T05:15:02;5.6;80.3
74742;SHT30;76291;48.288;16.314;2024-02-16T05:16:00;5.5;80.3
74742;SHT30;76291;48.288;16.314;2024-02-16T05:17:00;5.6;80.0
74742;SHT30;76291;48.288;16.314;2024-02-16T05:18:00;5.5;80.3
74742;SHT30;76291;48.288;16.314;2024-02-16T05:19:00;5.5;80.5
74742;SHT30;76291;48.288;16.314;2024-02-16T05:20:00;5.6;80.4
74742;SHT30;76291;48.288;16.314;2024-02-16T05:21:00;5.7;80.1
74742;SHT30;76291;48.288;16.314;2024-02-16T05:22:00;5.6;80.3
74742;SHT30;76291;48.288;16.314;2024-02-16T05:23:00;5.7;80.2
74742;SHT30;76291;48.288;16.314;2024-02-16T05:24:00;5.6;80.2
74742;SHT30;76291;48.288;16.314;2024-02-16T05:25:00;5.6;80.1
74742;SHT30;76291;48.288;16.314;2024-02-16T05:26:00;5.6;80.1
74742;SHT30;76291;48.288;16.314;2024-02-16T05:27:00;5.7;79.9
74742;SHT30;76291;48.288;16.314;2024-02-16T05:28:00;5.7;79.9
74742;SHT30;76291;48.288;16.314;2024-02-16T05:29:00;5.8;79.8
74742;SHT30;76291;48.288;16.314;2024-02-16T05:30:00;5.8;79.7
74742;SHT30;76291;48.288;16.314;2024-02-16T05:31:04;5.7;80.1
74742;SHT30;76291;48.288;16.314;2024-02-16T05:32:00;5.7;80.0
74742;SHT30;76291;48.288;16.314;2024-02-16T05:33:00;5.7;80.0
74742;SHT30;76291;48.288;16.314;2024-02-16T05:34:00;5.7;79.9
74742;SHT30;76291;48.288;16.314;2024-02-16T05:35:00;5.7;80.0
74742;SHT30;76291;48.288;16.314;2024-02-16T05:36:00;5.7;80.0
74742;SHT30;76291;48.288;16.314;2024-02-16T05:37:00;5.8;79.8
74742;SHT30;76291;48.288;16.314;2024-02-16T05:38:00;5.7;80.0
74742;SHT30;76291;48.288;16.314;2024-02-16T05:39:00;5.7;79.9
74742;SHT30;76291;48.288;16.314;2024-02-16T05:40:00;5.6;80.0
74742;SHT30;76291;48.288;16.314;2024-02-16T05:41:00;5.7;80.0
74742;SHT30;76291;48.288;16.314;2024-02-16T05:42:00;5.7;79.9
74742;SHT30;76291;48.288;16.314;2024-02-16T05:43:00;5.8;79.5
74742;SHT30;76291;48.288;16.314;2024-02-16T05:44:00;5.8;79.6
74742;SHT30;76291;48.288;16.314;2024-02-16T05:45:00;5.7;79.8
74742;SHT30;76291;48.288;16.314;2024-02-16T05:46:00;5.7;79.7
74742;SHT30;76291;48.288;16.314;2024-02-16T05:47:00;5.8;79.6
74742;SHT30;76291;48.288;16.314;2024-02-16T05:48:00;5.8;79.4
74742;SHT30;76291;48.288;16.314;2024-02-16T05:49:00;5.8;79.4
74742;SHT30;76291;48.288;16.314;2024-02-16T05:50:00;5.8;79.6
74742;SHT30;76291;48.288;16.314;2024-02-16T05:51:00;5.8;79.5
74742;SHT30;76291;48.288;16.314;2024-02-16T05:52:00;5.7;79.8
74742;SHT30;76291;48.288;16.314;2024-02-16T05:53:00;5.6;79.9
74742;SHT30;76291;48.288;16.314;2024-02-16T05:54:00;5.6;80.1
74742;SHT30;76291;48.288;16.314;2024-02-16T05:55:00;5.6;80.1
74742;SHT30;76291;48.288;16.314;2024-02-16T05:56:00;5.6;80.0
74742;SHT30;76291;48.288;16.314;2024-02-16T05:57:00;5.6;80.2
74742;SHT30;76291;48.288;16.314;2024-02-16T05:58:00;5.6;80.1
74742;SHT30;76291;48.288;16.314;2024-02-16T05:59:00;5.6;80.3
74742;SHT30;76291;48.288;16.314;2024-02-16T06:00:07;5.7;80.0
74742;SHT30;76291;48.288;16.314;2024-02-16T06:01:00;5.6;80.2
74742;SHT30;76291;48.288;16.314;2024-02-16T06:02:00;5.6;80.1
74742;SHT30;76291;48.288;16.314;2024-02-16T06:03:00;5.7;80.4
74742;SHT30;76291;48.288;16.314;2024-02-16T06:04:00;5.7;79.9
74742;SHT30;76291;48.288;16.314;2024-02-16T06:05:00;5.7;80.1
74742;SHT30;76291;48.288;16.314;2024-02-16T06:06:01;5.7;80.1
74742;SHT30;76291;48.288;16.314;2024-02-16T06:07:00;5.7;80.1
74742;SHT30;76291;48.288;16.314;2024-02-16T06:08:00;5.7;80.1
74742;SHT30;76291;48.288;16.314;2024-02-16T06:09:00;5.7;79.8
74742;SHT30;76291;48.288;16.314;2024-02-16T06:10:00;5.7;79.7
74742;SHT30;76291;48.288;16.314;2024-02-16T06:11:00;5.6;80.0
74742;SHT30;76291;48.288;16.314;2024-02-16T06:12:01;5.7;79.9
74742;SHT30;76291;48.288;16.314;2024-02-16T06:13:00;5.7;79.9
74742;SHT30;76291;48.288;16.314;2024-02-16T06:14:00;5.6;80.1
74742;SHT30;76291;48.288;16.314;2024-02-16T06:15:00;5.7;79.6
74742;SHT30;76291;48.288;16.314;2024-02-16T06:16:00;5.7;79.7
74742;SHT30;76291;48.288;16.314;2024-02-16T06:17:02;5.6;79.9
74742;SHT30;76291;48.288;16.314;2024-02-16T06:18:00;5.6;80.0
74742;SHT30;76291;48.288;16.314;2024-02-16T06:21:00;5.6;80.1
74742;SHT30;76291;48.288;16.314;2024-02-16T06:22:00;5.8;79.7
74742;SHT30;76291;48.288;16.314;2024-02-16T06:23:00;5.8;79.7
74742;SHT30;76291;48.288;16.314;2024-02-16T06:24:00;5.7;79.8
74742;SHT30;76291;48.288;16.314;2024-02-16T06:25:00;5.6;80.0
74742;SHT30;76291;48.288;16.314;2024-02-16T06:26:00;5.6;79.9
74742;SHT30;76291;48.288;16.314;2024-02-16T06:27:00;5.7;79.8
74742;SHT30;76291;48.288;16.314;2024-02-16T06:28:00;5.7;79.7
74742;SHT30;76291;48.288;16.314;2024-02-16T06:29:00;5.7;79.8
74742;SHT30;76291;48.288;16.314;2024-02-16T06:30:00;5.7;79.8
74742;SHT30;76291;48.288;16.314;2024-02-16T06:31:00;5.8;79.5
74742;SHT30;76291;48.288;16.314;2024-02-16T06:32:00;5.7;79.7
74742;SHT30;76291;48.288;16.314;2024-02-16T06:33:00;5.7;79.8
74742;SHT30;76291;48.288;16.314;2024-02-16T06:34:00;5.7;79.8
74742;SHT30;76291;48.288;16.314;2024-02-16T06:35:00;5.7;79.6
74742;SHT30;76291;48.288;16.314;2024-02-16T06:36:00;5.7;79.7